Time;durP1;ratioP1;P1;durP2;ratioP2;P2;SDS_P1;SDS_P2;PMS_P1;PMS_P2;Temp;Humidity;BMP_temperature;BMP_pressure;BME280_temperature;BME280_humidity;BME280_pressure;Samples;Min_cycle;Max_cycle;Signal;HPM_P1;HPM_P2
2022/10/06 00:00:13;;;;;;;4.38;2.83;;;;;;;14.97;100.00;101266.84;5007179;28;20795;-50
2022/10/06 00:02:39;;;;;;;3.42;2.92;;;;;;;14.97;100.00;101272.13;5008253;28;20248;-51
2022/10/06 00:05:06;;;;;;;3.00;2.80;;;;;;;14.89;100.00;101268.72;5020374;28;20255;-51
2022/10/06 00:07:34;;;;;;;3.45;2.60;;;;;;;14.93;100.00;101275.72;5028098;28;20235;-52
2022/10/06 00:10:00;;;;;;;4.00;3.00;;;;;;;14.94;100.00;101266.88;5023517;28;20228;-52
2022/10/06 00:12:27;;;;;;;3.30;2.70;;;;;;;14.98;100.00;101273.00;5029281;28;20240;-51
2022/10/06 00:14:53;;;;;;;4.00;3.25;;;;;;;14.94;100.00;101276.59;5027020;28;20244;-51
2022/10/06 00:17:21;;;;;;;3.50;3.20;;;;;;;14.94;100.00;101282.75;5024714;28;20233;-53
2022/10/06 00:19:47;;;;;;;3.80;3.40;;;;;;;14.95;100.00;101273.03;5037828;28;20232;-53
2022/10/06 00:22:14;;;;;;;2.92;2.63;;;;;;;14.90;100.00;101285.44;5023526;28;20324;-50
2022/10/06 00:24:40;;;;;;;3.20;3.00;;;;;;;14.97;100.00;101282.72;5013792;28;20290;-51
2022/10/06 00:27:07;;;;;;;3.40;3.10;;;;;;;14.93;100.00;101285.41;5026561;28;20241;-52
2022/10/06 00:29:33;;;;;;;5.40;3.40;;;;;;;14.90;100.00;101290.72;5015174;28;20726;-51
2022/10/06 00:31:59;;;;;;;6.90;3.28;;;;;;;14.94;100.00;101292.44;5002353;28;20230;-51
2022/10/06 00:34:27;;;;;;;3.15;2.95;;;;;;;14.91;100.00;101297.75;5002468;28;20232;-52
2022/10/06 00:36:54;;;;;;;3.58;3.28;;;;;;;14.90;100.00;101301.31;5029211;28;20232;-52
2022/10/06 00:39:20;;;;;;;3.40;3.10;;;;;;;14.93;100.00;101302.16;5009647;28;20233;-51
2022/10/06 00:41:46;;;;;;;4.28;3.20;;;;;;;14.96;100.00;101296.84;5003908;28;20233;-50
2022/10/06 00:44:13;;;;;;;4.57;3.33;;;;;;;15.06;100.00;101300.28;5039738;28;20232;-51
2022/10/06 00:46:43;;;;;;;5.32;3.33;;;;;;;15.11;100.00;101302.88;5002471;28;20226;-53
2022/10/06 00:49:14;;;;;;;3.63;3.20;;;;;;;15.08;100.00;101301.13;5000193;28;20782;-52
2022/10/06 00:51:44;;;;;;;3.28;3.08;;;;;;;15.17;100.00;101302.81;4996007;28;20236;-52
2022/10/06 00:54:11;;;;;;;3.55;2.70;;;;;;;15.17;100.00;101303.69;5000215;28;20244;-50
2022/10/06 00:56:39;;;;;;;3.30;3.00;;;;;;;15.25;100.00;101304.47;5000103;28;20245;-51
2022/10/06 00:59:08;;;;;;;2.83;2.63;;;;;;;15.24;100.00;101299.19;5026917;28;20706;-52
2022/10/06 01:01:35;;;;;;;2.92;2.72;;;;;;;15.25;100.00;101309.75;5015598;28;20235;-52
2022/10/06 01:04:06;;;;;;;4.43;3.03;;;;;;;15.30;100.00;101316.75;5019223;28;20283;-51
2022/10/06 01:06:44;;;;;;;4.45;3.25;;;;;;;15.38;100.00;101314.91;5020413;28;20240;-51
2022/10/06 01:09:11;;;;;;;3.50;3.20;;;;;;;15.45;100.00;101322.75;5024057;28;20243;-52
2022/10/06 01:11:37;;;;;;;3.25;2.90;;;;;;;15.49;100.00;101323.59;5015463;28;20247;-51
2022/10/06 01:14:04;;;;;;;3.05;2.85;;;;;;;15.53;100.00;101325.31;5003983;28;20233;-52
2022/10/06 01:16:36;;;;;;;4.95;3.33;;;;;;;15.54;100.00;101326.19;5008234;28;20741;-52
2022/10/06 01:19:04;;;;;;;3.40;3.08;;;;;;;15.54;100.00;101320.88;5021618;28;20240;-51
2022/10/06 01:21:34;;;;;;;4.05;2.88;;;;;;;15.58;100.00;101318.19;5021199;28;20279;-51
2022/10/06 01:24:03;;;;;;;2.60;2.40;;;;;;;15.60;100.00;101321.69;5026386;28;20327;-52
2022/10/06 01:26:31;;;;;;;3.20;2.90;;;;;;;15.74;100.00;101319.78;5026592;28;20236;-52
2022/10/06 01:28:57;;;;;;;4.32;3.13;;;;;;;15.67;100.00;101319.88;5013957;28;20229;-52
2022/10/06 01:31:24;;;;;;;2.88;2.67;;;;;;;15.68;100.00;101327.78;5002902;28;20233;-52
2022/10/06 01:33:54;;;;;;;2.67;2.47;;;;;;;15.76;100.00;101330.38;5010512;28;20229;-52
2022/10/06 01:36:21;;;;;;;4.75;2.97;;;;;;;15.79;100.00;101330.31;5017972;28;20319;-53
2022/10/06 01:38:48;;;;;;;2.53;2.10;;;;;;;15.74;100.00;101334.78;5017295;28;20228;-54
2022/10/06 01:41:16;;;;;;;3.60;2.90;;;;;;;15.71;100.00;101330.41;5026405;28;20236;-51
2022/10/06 01:43:43;;;;;;;3.78;2.30;;;;;;;15.67;100.00;101341.94;5006207;28;20245;-53
2022/10/06 01:46:10;;;;;;;3.17;2.78;;;;;;;15.65;100.00;101332.22;5006445;28;20703;-52
2022/10/06 01:48:37;;;;;;;5.78;2.72;;;;;;;15.68;100.00;101334.84;5004585;28;20781;-52
2022/10/06 01:51:04;;;;;;;3.25;2.95;;;;;;;15.76;100.00;101333.00;5006974;28;20249;-52
2022/10/06 01:53:31;;;;;;;2.97;2.78;;;;;;;15.66;100.00;101332.25;5004261;28;20319;-51
2022/10/06 01:55:58;;;;;;;3.42;3.13;;;;;;;15.62;100.00;101334.91;5005086;28;20225;-51
2022/10/06 01:58:27;;;;;;;6.05;3.05;;;;;;;15.53;100.00;101341.19;5013246;28;20315;-52
2022/10/06 02:00:54;;;;;;;4.47;2.50;;;;;;;15.55;100.00;101341.16;5021177;28;20718;-52
2022/10/06 02:03:20;;;;;;;5.55;3.30;;;;;;;15.47;100.00;101335.97;5008336;28;20233;-51
2022/10/06 02:05:47;;;;;;;4.03;2.92;;;;;;;15.54;100.00;101342.06;5037487;28;20234;-52
2022/10/06 02:08:14;;;;;;;4.85;3.20;;;;;;;15.48;100.00;101335.09;5032701;28;20235;-52
2022/10/06 02:10:41;;;;;;;2.88;2.65;;;;;;;15.46;100.00;101331.56;5036178;28;20252;-52
2022/10/06 02:13:08;;;;;;;3.75;3.17;;;;;;;15.39;100.00;101338.69;5005204;28;20260;-51
2022/10/06 02:15:37;;;;;;;7.20;2.90;;;;;;;15.36;100.00;101340.50;5019691;28;20580;-54
2022/10/06 02:18:04;;;;;;;3.45;3.00;;;;;;;15.42;100.00;101337.78;5016762;28;20228;-53
2022/10/06 02:20:31;;;;;;;3.30;3.10;;;;;;;15.30;100.00;101341.44;5017243;28;20236;-53
2022/10/06 02:22:58;;;;;;;4.45;3.10;;;;;;;15.31;100.00;101344.97;5019599;28;20223;-51
2022/10/06 02:25:26;;;;;;;3.40;2.80;;;;;;;15.28;100.00;101357.34;5008412;28;20315;-52
2022/10/06 02:27:54;;;;;;;3.42;3.13;;;;;;;15.30;100.00;101351.16;5014880;28;20333;-50
2022/10/06 02:30:21;;;;;;;3.22;2.90;;;;;;;15.30;100.00;101365.25;5020122;28;20761;-52
2022/10/06 02:32:50;;;;;;;2.90;2.70;;;;;;;15.30;100.00;101353.78;5026914;28;20255;-52
2022/10/06 02:35:17;;;;;;;7.65;3.15;;;;;;;15.28;100.00;101352.03;5028264;28;20290;-52
2022/10/06 02:37:44;;;;;;;3.58;3.28;;;;;;;15.30;100.00;101354.66;5021087;28;20236;-51
2022/10/06 02:40:11;;;;;;;6.10;3.30;;;;;;;15.36;100.00;101361.66;5023093;28;20228;-52
2022/10/06 02:42:38;;;;;;;4.93;3.58;;;;;;;15.30;100.00;101359.94;5025206;28;20232;-52
2022/10/06 02:45:06;;;;;;;2.92;2.72;;;;;;;15.35;100.00;101359.94;5032401;28;20240;-51
2022/10/06 02:47:33;;;;;;;3.90;2.72;;;;;;;15.22;100.00;101361.81;5023820;28;20241;-51
2022/10/06 02:50:04;;;;;;;6.32;2.80;;;;;;;15.20;100.00;101369.78;5023799;28;20264;-51
2022/10/06 02:52:32;;;;;;;4.18;3.05;;;;;;;15.22;100.00;101378.56;5017674;28;20256;-51
2022/10/06 02:54:58;;;;;;;3.47;3.28;;;;;;;15.26;100.00;101369.69;5028396;28;20241;-51
2022/10/06 02:57:26;;;;;;;5.97;2.58;;;;;;;15.34;100.00;101376.66;5017475;28;20233;-52
2022/10/06 02:59:53;;;;;;;11.10;3.63;;;;;;;15.37;100.00;101381.94;5016697;28;20315;-52
2022/10/06 03:02:19;;;;;;;6.03;3.10;;;;;;;15.33;100.00;101385.50;5030800;28;20232;-52
2022/10/06 03:04:47;;;;;;;3.50;3.20;;;;;;;15.35;100.00;101391.69;5025603;28;20286;-51
2022/10/06 03:07:15;;;;;;;4.13;3.17;;;;;;;15.41;100.00;101396.88;5024272;28;20642;-52
2022/10/06 03:09:42;;;;;;;3.70;3.30;;;;;;;15.47;100.00;101404.75;5023672;28;20290;-52
2022/10/06 03:12:09;;;;;;;5.60;3.40;;;;;;;15.46;100.00;101405.66;5026441;28;20289;-52
2022/10/06 03:14:39;;;;;;;3.10;2.90;;;;;;;15.45;100.00;101406.56;5036511;28;20232;-53
2022/10/06 03:17:08;;;;;;;3.33;3.05;;;;;;;15.42;100.00;101406.59;5024008;28;20237;-52
2022/10/06 03:19:37;;;;;;;7.68;3.53;;;;;;;15.40;100.00;101408.38;5015333;28;20229;-52
2022/10/06 03:22:04;;;;;;;3.90;2.92;;;;;;;15.44;100.00;101423.31;5025951;28;20281;-53
2022/10/06 03:24:33;;;;;;;3.70;3.22;;;;;;;15.61;100.00;101429.31;5019413;28;20237;-52
2022/10/06 03:27:00;;;;;;;2.97;2.78;;;;;;;15.59;100.00;101423.19;5019658;28;20957;-53
2022/10/06 03:29:28;;;;;;;4.95;3.55;;;;;;;15.53;100.00;101439.13;5014512;28;20319;-52
2022/10/06 03:31:55;;;;;;;4.35;3.25;;;;;;;15.76;100.00;101433.63;5025038;28;20278;-53
2022/10/06 03:34:22;;;;;;;3.80;3.05;;;;;;;15.70;100.00;101446.91;5026548;28;20233;-53
2022/10/06 03:36:48;;;;;;;2.70;2.50;;;;;;;15.83;100.00;101455.59;5033896;28;20239;-52
2022/10/06 03:39:15;;;;;;;2.72;2.53;;;;;;;15.87;100.00;101462.63;5022110;28;20252;-52
2022/10/06 03:41:44;;;;;;;3.90;2.70;;;;;;;15.84;100.00;101467.97;5013881;28;20229;-53
2022/10/06 03:44:11;;;;;;;3.05;2.80;;;;;;;15.96;100.00;101478.41;5002184;28;20245;-52
2022/10/06 03:46:38;;;;;;;3.60;2.90;;;;;;;15.89;100.00;101493.47;5001225;28;20291;-53
2022/10/06 03:49:05;;;;;;;3.47;3.17;;;;;;;15.85;100.00;101490.88;5003390;28;20244;-52
2022/10/06 03:51:33;;;;;;;2.92;2.55;;;;;;;15.83;100.00;101492.66;5000601;28;20225;-52
2022/10/06 03:54:00;;;;;;;2.70;2.50;;;;;;;15.79;100.00;101485.66;4999496;28;20241;-52
2022/10/06 03:56:29;;;;;;;3.10;2.33;;;;;;;15.84;100.00;101495.31;4999937;28;20700;-53
2022/10/06 03:58:59;;;;;;;2.85;2.10;;;;;;;15.83;100.00;101504.16;5002238;28;20229;-52
2022/10/06 04:01:28;;;;;;;2.92;1.88;;;;;;;15.89;100.00;101511.13;4997762;28;20355;-52
2022/10/06 04:03:56;;;;;;;2.40;2.20;;;;;;;15.75;100.00;101513.94;4991842;28;20225;-53
2022/10/06 04:06:23;;;;;;;2.70;2.50;;;;;;;15.83;100.00;101529.72;5000611;28;20710;-52
2022/10/06 04:08:51;;;;;;;2.30;2.20;;;;;;;15.70;100.00;101529.88;5016834;28;20220;-53
2022/10/06 04:11:20;;;;;;;7.80;2.50;;;;;;;15.75;100.00;101533.34;5023672;28;20228;-52
2022/10/06 04:13:48;;;;;;;2.42;1.92;;;;;;;15.70;100.00;101540.47;4994346;28;20228;-52
2022/10/06 04:16:18;;;;;;;4.03;2.20;;;;;;;15.66;100.00;101551.97;4996498;28;20262;-52
2022/10/06 04:18:48;;;;;;;3.05;2.35;;;;;;;15.59;100.00;101558.19;5005257;28;20221;-52
2022/10/06 04:21:16;;;;;;;3.28;2.45;;;;;;;15.72;100.00;101565.16;4994470;28;20247;-53
2022/10/06 04:23:43;;;;;;;4.47;1.75;;;;;;;15.69;100.00;101574.91;4995005;28;20347;-51
2022/10/06 04:26:12;;;;;;;2.35;1.50;;;;;;;15.58;100.00;101566.97;5028225;28;20293;-51
2022/10/06 04:28:40;;;;;;;3.55;2.30;;;;;;;15.61;100.00;101572.25;5022782;28;20229;-51
2022/10/06 04:31:12;;;;;;;3.08;2.00;;;;;;;15.61;100.00;101569.63;5000494;28;20226;-51
2022/10/06 04:33:41;;;;;;;1.50;1.40;;;;;;;15.45;100.00;101568.00;5000719;28;20785;-52
2022/10/06 04:36:10;;;;;;;1.25;1.15;;;;;;;15.42;100.00;101568.03;5001029;28;20239;-51
2022/10/06 04:38:37;;;;;;;1.38;1.00;;;;;;;15.44;100.00;101574.16;5002249;28;20253;-52
2022/10/06 04:41:05;;;;;;;1.45;1.13;;;;;;;15.39;100.00;101582.16;5001486;28;20229;-51
2022/10/06 04:43:32;;;;;;;1.08;0.98;;;;;;;15.40;100.00;101596.25;5007958;28;20243;-52
2022/10/06 04:45:59;;;;;;;1.33;1.17;;;;;;;15.51;93.53;101602.34;5017729;28;20734;-52
2022/10/06 04:48:27;;;;;;;0.93;0.70;;;;;;;15.49;93.71;101601.50;5009083;28;20299;-51
2022/10/06 04:50:57;;;;;;;1.33;0.90;;;;;;;15.43;94.95;101609.47;5016445;28;20226;-52
2022/10/06 04:53:24;;;;;;;1.08;0.95;;;;;;;15.56;94.16;101605.84;5026282;28;20591;-52
2022/10/06 04:56:02;;;;;;;0.93;0.93;;;;;;;15.47;94.85;101612.06;5027382;28;20237;-54
2022/10/06 04:58:32;;;;;;;0.90;0.90;;;;;;;15.60;92.88;101612.00;5016679;28;20236;-53
2022/10/06 05:01:00;;;;;;;2.10;0.93;;;;;;;15.50;93.18;101619.13;5022941;28;20240;-50
2022/10/06 05:03:27;;;;;;;3.30;0.98;;;;;;;15.44;92.19;101627.09;5036085;28;20320;-51
2022/10/06 05:06:02;;;;;;;0.63;0.60;;;;;;;15.48;92.04;101631.50;5016550;28;20328;-51
2022/10/06 05:08:29;;;;;;;1.45;0.50;;;;;;;15.49;90.68;101636.78;5003036;28;20232;-51
2022/10/06 05:10:59;;;;;;;0.88;0.60;;;;;;;15.36;90.43;101650.09;5009921;28;20255;-51
2022/10/06 05:13:26;;;;;;;1.05;0.90;;;;;;;15.33;91.43;101655.41;4997772;28;20233;-51
2022/10/06 05:15:55;;;;;;;1.23;0.55;;;;;;;15.36;88.26;101660.69;5000007;28;20283;-51
2022/10/06 05:18:22;;;;;;;2.58;0.73;;;;;;;15.42;86.88;101673.88;5023756;28;20232;-54
2022/10/06 05:20:55;;;;;;;5.47;1.20;;;;;;;15.49;85.69;101670.31;5017896;28;20720;-52
2022/10/06 05:23:24;;;;;;;1.73;0.70;;;;;;;15.43;85.41;101678.28;5000146;28;20257;-53
2022/10/06 05:25:51;;;;;;;1.90;0.70;;;;;;;15.30;86.13;101687.16;4997941;28;20225;-52
2022/10/06 05:28:18;;;;;;;1.30;0.80;;;;;;;15.21;85.88;101693.38;5002799;28;20233;-53
2022/10/06 05:30:55;;;;;;;3.55;0.70;;;;;;;15.20;86.44;101696.94;5003012;28;20320;-52
2022/10/06 05:33:22;;;;;;;3.40;0.70;;;;;;;15.11;87.06;101708.41;5003238;28;20244;-53
2022/10/06 05:35:53;;;;;;;0.73;0.63;;;;;;;15.14;87.56;101708.41;5021656;28;20327;-51
2022/10/06 05:38:20;;;;;;;1.00;0.52;;;;;;;15.04;88.73;101719.91;5026588;28;20232;-52
2022/10/06 05:40:48;;;;;;;1.75;0.70;;;;;;;15.07;88.39;101732.25;5010865;28;20228;-52
2022/10/06 05:43:15;;;;;;;1.15;0.63;;;;;;;14.94;89.49;101741.97;5023712;28;20232;-51
2022/10/06 05:45:52;;;;;;;0.55;0.55;;;;;;;14.99;89.36;101745.50;5022443;28;20255;-52
2022/10/06 05:48:20;;;;;;;0.50;0.45;;;;;;;15.01;88.89;101754.28;5024342;28;20288;-50
2022/10/06 05:50:47;;;;;;;0.90;0.40;;;;;;;14.92;88.11;101765.78;5001293;28;20225;-52
2022/10/06 05:53:14;;;;;;;0.73;0.50;;;;;;;14.88;88.19;101768.41;5013274;28;20232;-52
2022/10/06 05:55:42;;;;;;;0.60;0.57;;;;;;;14.84;90.08;101785.19;5027389;28;20247;-50
2022/10/06 05:58:10;;;;;;;0.95;0.60;;;;;;;14.79;89.51;101782.56;5000659;28;20238;-52
2022/10/06 06:00:37;;;;;;;0.70;0.57;;;;;;;14.73;89.43;101807.22;4994354;28;20234;-52
2022/10/06 06:03:08;;;;;;;3.03;0.60;;;;;;;14.62;89.67;101805.47;5024718;28;20726;-52
2022/10/06 06:05:39;;;;;;;0.80;0.35;;;;;;;14.54;90.71;101810.78;5018868;28;20741;-51
2022/10/06 06:08:06;;;;;;;0.95;0.40;;;;;;;14.55;91.42;101820.47;5010649;28;20238;-51
2022/10/06 06:10:33;;;;;;;0.80;0.52;;;;;;;14.59;89.42;101830.13;5023728;28;20232;-52
2022/10/06 06:13:00;;;;;;;0.60;0.60;;;;;;;14.54;89.33;101818.69;5012865;28;20240;-51
2022/10/06 06:18:12;;;;;;;2.40;0.57;;;;;;;14.58;88.93;101849.53;5000252;28;20252;-50
2022/10/06 06:20:40;;;;;;;2.10;0.63;;;;;;;14.51;89.29;101859.22;5001309;28;20239;-52
2022/10/06 06:23:06;;;;;;;0.40;0.40;;;;;;;14.65;88.81;101861.88;4998832;28;20233;-52
2022/10/06 06:25:33;;;;;;;1.20;0.50;;;;;;;14.60;89.30;101874.22;5000309;28;20241;-52
2022/10/06 06:28:00;;;;;;;1.55;0.70;;;;;;;14.57;89.95;101882.13;5005444;28;20228;-50
2022/10/06 06:30:28;;;;;;;0.50;0.50;;;;;;;14.56;89.22;101883.88;5000983;28;20233;-52
2022/10/06 06:32:59;;;;;;;2.30;0.47;;;;;;;14.67;89.21;101890.94;5005484;28;20237;-51
2022/10/06 06:35:25;;;;;;;3.10;0.80;;;;;;;14.71;88.60;101893.59;5009977;28;20240;-52
2022/10/06 06:37:52;;;;;;;1.17;0.60;;;;;;;14.64;89.80;101897.13;5007935;28;20233;-53
2022/10/06 06:40:19;;;;;;;0.40;0.38;;;;;;;14.68;89.77;101893.59;5007469;28;20732;-51
2022/10/06 06:42:46;;;;;;;1.17;0.70;;;;;;;14.69;89.20;101908.56;5007451;28;20240;-51
2022/10/06 06:45:13;;;;;;;0.40;0.35;;;;;;;14.70;88.95;101915.59;5005679;28;20248;-52
2022/10/06 06:47:42;;;;;;;3.60;1.70;;;;;;;14.76;89.94;101918.25;5002135;28;20241;-52
2022/10/06 06:50:09;;;;;;;0.80;0.80;;;;;;;14.79;89.61;101915.63;5003745;28;20295;-52
2022/10/06 06:52:37;;;;;;;3.92;0.68;;;;;;;14.94;89.01;101924.44;5026434;28;20860;-51
2022/10/06 06:55:04;;;;;;;3.60;0.70;;;;;;;14.94;89.47;101929.72;5017291;28;20236;-52
2022/10/06 06:57:31;;;;;;;1.75;0.65;;;;;;;14.84;89.78;101939.41;5006260;28;20236;-52
2022/10/06 07:00:01;;;;;;;2.28;0.65;;;;;;;14.82;89.96;101938.56;5027980;28;20232;-52
2022/10/06 07:02:28;;;;;;;4.47;0.98;;;;;;;14.70;91.44;101955.25;5032213;28;20229;-52
2022/10/06 07:04:56;;;;;;;1.50;0.90;;;;;;;14.82;91.92;101958.81;5018435;28;20698;-52
2022/10/06 07:07:23;;;;;;;2.10;0.60;;;;;;;14.92;91.49;101960.59;5012305;28;20255;-51
2022/10/06 07:09:50;;;;;;;3.17;0.80;;;;;;;14.79;92.37;101963.22;4995780;28;20225;-53
2022/10/06 07:12:17;;;;;;;4.97;0.98;;;;;;;14.84;92.29;101973.78;5007320;28;20298;-52
2022/10/06 07:25:39;;;;;;;1.02;0.63;;;;;;;15.04;91.31;102000.25;5006776;28;20263;-52
2022/10/06 07:28:06;;;;;;;2.30;0.93;;;;;;;15.09;90.83;102003.78;5001158;28;20260;-51
2022/10/06 07:30:33;;;;;;;2.20;0.93;;;;;;;15.15;91.42;102013.50;5000638;28;20240;-53
2022/10/06 07:33:00;;;;;;;4.90;0.85;;;;;;;15.14;90.77;102015.28;4999365;28;20261;-52
2022/10/06 07:35:29;;;;;;;2.75;1.00;;;;;;;15.22;89.23;102018.78;4999407;28;20596;-52
2022/10/06 07:37:56;;;;;;;2.42;0.88;;;;;;;15.13;90.48;102017.91;5018004;28;20228;-53
2022/10/06 07:40:24;;;;;;;1.95;0.65;;;;;;;15.12;89.78;102017.00;5010257;28;20327;-51
2022/10/06 07:42:51;;;;;;;4.35;1.30;;;;;;;15.20;90.20;102020.56;5017632;28;20239;-51
2022/10/06 07:45:38;;;;;;;2.85;1.05;;;;;;;15.20;89.65;102023.22;5015999;28;20227;-51
2022/10/06 07:48:06;;;;;;;2.33;0.90;;;;;;;15.21;88.97;102038.19;4992328;28;20242;-51
2022/10/06 07:50:35;;;;;;;2.05;1.15;;;;;;;15.17;90.59;102030.28;5011435;28;20243;-53
2022/10/06 07:53:06;;;;;;;2.10;0.65;;;;;;;15.16;88.45;102034.69;5003250;28;20221;-52
2022/10/06 07:55:33;;;;;;;3.22;1.15;;;;;;;15.22;87.04;102034.66;5003919;28;20246;-52
2022/10/06 07:58:00;;;;;;;5.53;1.30;;;;;;;15.23;85.21;102041.75;5006852;28;20256;-52
2022/10/06 08:00:27;;;;;;;2.67;1.05;;;;;;;15.27;85.33;102050.56;5010826;28;20767;-52
2022/10/06 08:02:55;;;;;;;1.08;0.70;;;;;;;15.49;82.66;102051.44;5015340;28;20707;-52
2022/10/06 08:05:21;;;;;;;2.38;0.98;;;;;;;15.67;83.04;102054.09;4999840;28;20252;-51
2022/10/06 08:07:50;;;;;;;2.72;1.17;;;;;;;15.72;82.65;102057.66;4997612;28;20229;-52
2022/10/06 08:10:17;;;;;;;4.95;1.70;;;;;;;15.80;81.01;102072.66;5010940;28;20232;-52
2022/10/06 08:12:44;;;;;;;4.88;1.35;;;;;;;15.96;80.38;102071.72;5021042;28;20648;-52
2022/10/06 08:15:12;;;;;;;1.27;1.00;;;;;;;15.99;80.50;102067.28;5021483;28;20725;-52
2022/10/06 08:17:39;;;;;;;3.38;1.00;;;;;;;16.13;79.55;102084.94;5023705;28;20228;-52
2022/10/06 08:20:07;;;;;;;2.63;0.90;;;;;;;16.34;77.64;102078.69;5014481;28;20236;-51
2022/10/06 08:22:35;;;;;;;1.85;1.10;;;;;;;16.31;73.88;102091.94;5027446;28;20828;-52
2022/10/06 08:25:04;;;;;;;4.57;1.30;;;;;;;16.26;74.91;102094.63;5012443;28;20758;-52
2022/10/06 08:27:31;;;;;;;5.32;1.15;;;;;;;16.22;73.47;102095.53;5007183;28;20224;-52
2022/10/06 08:29:57;;;;;;;2.38;1.00;;;;;;;16.01;72.56;102104.41;5007321;28;20229;-52
2022/10/06 08:32:25;;;;;;;5.10;1.30;;;;;;;15.90;71.45;102108.81;5008729;28;20252;-50
2022/10/06 08:34:52;;;;;;;2.70;0.93;;;;;;;15.91;68.81;102108.81;5028924;28;20723;-53
2022/10/06 08:37:22;;;;;;;3.13;1.00;;;;;;;15.80;69.38;102113.25;5013633;28;20224;-52
2022/10/06 08:39:50;;;;;;;1.27;0.80;;;;;;;15.61;69.95;102114.97;5004166;28;20243;-52
2022/10/06 08:42:26;;;;;;;3.13;1.70;;;;;;;15.78;69.95;102124.72;5011672;28;20228;-52
2022/10/06 08:44:56;;;;;;;3.22;1.08;;;;;;;16.08;69.01;102130.00;5002615;28;20229;-53
2022/10/06 08:47:23;;;;;;;4.03;1.42;;;;;;;16.12;69.23;102131.75;4999489;28;20229;-53
2022/10/06 08:49:52;;;;;;;7.13;1.63;;;;;;;16.03;68.39;102139.69;5006074;28;20233;-53
2022/10/06 08:52:31;;;;;;;3.03;1.10;;;;;;;16.17;67.11;102151.16;5014850;28;20225;-52
2022/10/06 08:55:05;;;;;;;4.47;1.15;;;;;;;16.31;66.85;102155.56;5013766;28;20307;-52
2022/10/06 08:57:38;;;;;;;4.43;1.50;;;;;;;16.38;65.95;102139.63;5010939;28;20239;-52
2022/10/06 09:00:11;;;;;;;3.45;1.50;;;;;;;16.32;66.91;102149.38;5014534;28;20252;-52
2022/10/06 09:02:41;;;;;;;2.22;1.30;;;;;;;16.57;66.04;102156.41;5008644;28;20225;-53
2022/10/06 09:05:09;;;;;;;3.63;1.17;;;;;;;16.72;65.68;102151.94;5008690;28;20265;-51
2022/10/06 09:07:42;;;;;;;9.35;1.52;;;;;;;16.92;64.41;102152.75;5016741;28;20931;-51
2022/10/06 09:10:23;;;;;;;4.50;1.38;;;;;;;17.01;63.82;102147.41;5031088;28;20391;-52
2022/10/06 09:12:57;;;;;;;2.55;1.35;;;;;;;17.05;63.54;102162.41;5031236;28;20653;-53
2022/10/06 09:15:30;;;;;;;6.28;1.08;;;;;;;17.07;62.91;102157.09;5012121;28;20229;-52
2022/10/06 09:18:00;;;;;;;5.22;1.73;;;;;;;17.16;63.18;102165.91;5023385;28;20236;-51
2022/10/06 09:20:30;;;;;;;5.18;1.70;;;;;;;17.20;61.93;102164.13;5015433;28;20221;-51
2022/10/06 09:22:57;;;;;;;4.32;1.10;;;;;;;17.14;61.57;102172.09;5028604;28;20228;-51
2022/10/06 09:25:26;;;;;;;8.25;3.10;;;;;;;17.30;61.92;102180.84;5025419;28;20245;-51
2022/10/06 09:27:55;;;;;;;5.25;1.60;;;;;;;17.48;59.89;102170.16;5019046;28;20225;-56
2022/10/06 09:30:23;;;;;;;5.15;1.83;;;;;;;17.31;57.89;102186.19;5012722;28;20233;-51
2022/10/06 09:32:56;;;;;;;7.47;1.67;;;;;;;17.12;58.58;102209.25;5004778;28;20244;-52
2022/10/06 09:35:24;;;;;;;6.30;1.77;;;;;;;16.87;59.47;102194.34;5011142;28;20602;-53
2022/10/06 09:37:55;;;;;;;4.43;1.33;;;;;;;16.70;60.83;102200.53;4998609;28;20238;-52
2022/10/06 09:40:37;;;;;;;2.25;1.00;;;;;;;16.78;61.27;102194.34;5018638;28;20313;-52
2022/10/06 09:43:25;;;;;;;3.58;1.30;;;;;;;16.82;59.96;102214.69;5006824;28;20247;-52
2022/10/06 09:45:54;;;;;;;7.30;3.30;;;;;;;16.89;59.04;102213.78;5002899;28;20229;-52
2022/10/06 09:48:23;;;;;;;4.28;1.92;;;;;;;16.88;58.77;102210.25;5008746;28;20230;-52
2022/10/06 09:51:10;;;;;;;6.70;1.33;;;;;;;16.72;59.07;102212.94;5016950;28;20221;-51
2022/10/06 09:53:38;;;;;;;3.65;1.08;;;;;;;16.72;57.56;102220.88;4995030;28;20237;-51
2022/10/06 09:56:11;;;;;;;5.15;1.10;;;;;;;16.73;57.62;102215.56;5004263;28;20228;-51
2022/10/06 09:58:39;;;;;;;5.15;1.10;;;;;;;16.86;56.76;102222.63;5016398;28;20312;-51
2022/10/06 10:01:06;;;;;;;2.03;1.00;;;;;;;16.88;56.18;102219.97;5008197;28;21008;-52
2022/10/06 10:03:50;;;;;;;1.27;1.00;;;;;;;16.94;56.91;102218.19;5015690;28;20237;-52
2022/10/06 10:06:26;;;;;;;3.88;0.68;;;;;;;16.89;56.24;102221.75;5007512;28;20632;-53
2022/10/06 10:09:04;;;;;;;4.47;1.23;;;;;;;16.92;56.09;102224.41;4998037;28;20238;-53
2022/10/06 10:14:19;;;;;;;2.58;1.27;;;;;;;16.99;56.95;102234.09;4999193;28;20244;-51
2022/10/06 10:16:46;;;;;;;1.65;1.00;;;;;;;17.17;57.03;102226.06;5004531;28;20221;-53
2022/10/06 10:19:23;;;;;;;5.22;1.10;;;;;;;17.30;56.62;102229.50;5007249;28;20259;-52
2022/10/06 10:21:50;;;;;;;2.63;0.98;;;;;;;17.50;56.96;102226.78;5002119;28;20859;-51
2022/10/06 10:24:25;;;;;;;3.63;1.08;;;;;;;17.70;54.92;102223.13;5012240;28;20323;-51
2022/10/06 10:26:56;;;;;;;4.90;1.65;;;;;;;17.63;54.29;102236.44;5019638;28;20228;-52
2022/10/06 10:29:44;;;;;;;4.05;0.80;;;;;;;17.51;54.11;102244.44;5027805;28;20670;-52
2022/10/06 10:32:14;;;;;;;5.28;1.25;;;;;;;17.50;53.22;102260.41;5027031;28;20236;-51
2022/10/06 10:34:58;;;;;;;3.22;0.88;;;;;;;17.26;52.17;102251.66;5023298;28;20371;-52
2022/10/06 10:37:30;;;;;;;4.68;1.00;;;;;;;17.12;52.98;102253.50;5012527;28;20260;-52
2022/10/06 10:40:01;;;;;;;7.80;1.17;;;;;;;17.11;53.00;102249.09;5020971;28;20755;-52
2022/10/06 10:42:32;;;;;;;4.05;1.55;;;;;;;16.78;52.83;102255.34;5023509;28;20242;-52
2022/10/06 10:45:01;;;;;;;2.38;1.05;;;;;;;16.74;54.36;102258.88;5023801;28;20238;-53
2022/10/06 10:47:31;;;;;;;5.85;1.67;;;;;;;16.71;54.88;102259.78;5022471;28;20752;-51
2022/10/06 10:50:02;;;;;;;3.22;1.23;;;;;;;16.83;54.13;102265.09;5029392;28;20698;-51
2022/10/06 10:52:32;;;;;;;2.28;1.50;;;;;;;16.94;54.27;102262.41;5019756;28;20264;-52
2022/10/06 10:55:05;;;;;;;8.90;2.10;;;;;;;17.07;54.47;102257.94;5022688;28;20236;-52
2022/10/06 10:57:37;;;;;;;4.00;1.85;;;;;;;17.06;54.02;102254.41;5023883;28;20232;-53
2022/10/06 11:00:07;;;;;;;1.90;1.02;;;;;;;17.33;54.60;102257.84;5016965;28;20754;-51
2022/10/06 11:02:34;;;;;;;3.97;0.90;;;;;;;17.55;53.16;102251.53;5021437;28;20316;-51
2022/10/06 11:05:03;;;;;;;2.95;1.40;;;;;;;17.64;53.34;102250.59;5025923;28;20340;-52
2022/10/06 11:07:34;;;;;;;4.50;0.93;;;;;;;17.86;52.74;102256.66;5035573;28;20233;-51
2022/10/06 11:10:05;;;;;;;6.85;1.90;;;;;;;18.01;52.97;102261.91;5010615;28;20233;-50
2022/10/06 11:12:47;;;;;;;4.85;1.13;;;;;;;18.30;50.88;102260.78;5024823;28;20816;-51
2022/10/06 11:15:20;;;;;;;4.05;1.45;;;;;;;18.09;50.67;102270.69;5019678;28;20283;-51
2022/10/06 11:17:49;;;;;;;3.08;1.85;;;;;;;17.99;51.27;102269.00;5021043;28;20255;-51
2022/10/06 11:20:25;;;;;;;2.10;0.80;;;;;;;17.96;51.69;102269.00;5028495;28;20298;-51
2022/10/06 11:22:55;;;;;;;5.13;1.65;;;;;;;17.87;52.42;102277.06;4998184;28;20248;-52
2022/10/06 11:25:22;;;;;;;4.03;1.40;;;;;;;17.89;53.34;102273.47;5011487;28;20632;-51
2022/10/06 11:27:56;;;;;;;6.63;1.48;;;;;;;17.94;53.02;102281.44;5016303;28;20243;-53
2022/10/06 11:30:25;;;;;;;2.70;1.50;;;;;;;17.99;52.99;102271.66;5011444;28;20229;-51
2022/10/06 11:33:08;;;;;;;7.75;1.17;;;;;;;18.01;52.25;102283.16;5027141;28;20228;-51
2022/10/06 11:35:36;;;;;;;5.18;1.42;;;;;;;18.00;52.14;102285.81;5005229;28;20240;-52
2022/10/06 11:38:07;;;;;;;6.93;1.42;;;;;;;18.10;51.63;102290.16;5011341;28;20225;-51
2022/10/06 11:40:46;;;;;;;8.13;1.15;;;;;;;18.26;48.80;102288.28;5003877;28;20706;-52
2022/10/06 11:43:17;;;;;;;3.53;1.17;;;;;;;18.19;48.99;102289.25;5007977;28;20244;-51
2022/10/06 11:45:50;;;;;;;4.72;1.35;;;;;;;18.24;48.90;102284.75;5002927;28;20229;-53